Antlers, Oklahoma
Current Conditions -  °F | °C
As of 12:15 PM on Thursday 29 Jan 2015 (Local Time) from KHHW Reporting Station
Clear Clear  
Wind Chill: 17°   Ceiling: Unl
Heat Index: 17°   Visibility: 10mi
Dew Point:   Wind: 15mph
Humidity: 38%   Direction: 350°N
Pressure: 30.27"   Gusts: 21mph
Location:  34.23°N, 95.62°W
Report Text: KHHW 291815Z AUTO 35013G18KT 10SM CLR 17/02 A3027 RMK AO2 T01660022
Loading
Personal Weather Stations






























Interactive Weather Map New forecast layout! Learn more

10-Day Weather Forecast

Advertisements
Track Severe Weather on mobile